sensor_id;sensor_type;location;lat;lon;timestamp;P1;durP1;ratioP1;P2;durP2;ratioP2
18893;SDS011;9579;49.488;8.226;2023-09-08T00:00:19;7.60;;;7.00;;
18893;SDS011;9579;49.488;8.226;2023-09-08T00:03:08;7.00;;;6.50;;
18893;SDS011;9579;49.488;8.226;2023-09-08T00:05:55;7.25;;;6.53;;
18893;SDS011;9579;49.488;8.226;2023-09-08T00:08:42;7.07;;;6.40;;
18893;SDS011;9579;49.488;8.226;2023-09-08T00:11:29;7.45;;;6.90;;
18893;SDS011;9579;49.488;8.226;2023-09-08T00:14:17;7.20;;;6.13;;
18893;SDS011;9579;49.488;8.226;2023-09-08T00:17:04;7.30;;;6.65;;
18893;SDS011;9579;49.488;8.226;2023-09-08T00:19:52;7.30;;;6.70;;
18893;SDS011;9579;49.488;8.226;2023-09-08T00:22:39;7.85;;;7.10;;
18893;SDS011;9579;49.488;8.226;2023-09-08T00:25:26;7.80;;;7.10;;
18893;SDS011;9579;49.488;8.226;2023-09-08T00:28:13;7.85;;;6.93;;
18893;SDS011;9579;49.488;8.226;2023-09-08T00:31:00;7.72;;;7.03;;
18893;SDS011;9579;49.488;8.226;2023-09-08T00:33:47;7.35;;;6.65;;
18893;SDS011;9579;49.488;8.226;2023-09-08T00:36:36;7.10;;;6.40;;
18893;SDS011;9579;49.488;8.226;2023-09-08T00:39:23;7.13;;;6.47;;
18893;SDS011;9579;49.488;8.226;2023-09-08T00:42:10;7.10;;;6.53;;
18893;SDS011;9579;49.488;8.226;2023-09-08T00:44:57;7.03;;;6.50;;
18893;SDS011;9579;49.488;8.226;2023-09-08T00:47:44;7.28;;;6.68;;
18893;SDS011;9579;49.488;8.226;2023-09-08T00:50:31;7.88;;;7.18;;
18893;SDS011;9579;49.488;8.226;2023-09-08T00:53:19;7.57;;;6.97;;
18893;SDS011;9579;49.488;8.226;2023-09-08T00:56:08;6.90;;;6.40;;
18893;SDS011;9579;49.488;8.226;2023-09-08T00:58:55;7.40;;;6.80;;
18893;SDS011;9579;49.488;8.226;2023-09-08T01:01:43;8.18;;;7.57;;
18893;SDS011;9579;49.488;8.226;2023-09-08T01:04:30;7.68;;;6.97;;
18893;SDS011;9579;49.488;8.226;2023-09-08T01:07:18;7.22;;;6.53;;
18893;SDS011;9579;49.488;8.226;2023-09-08T01:10:08;7.47;;;6.88;;
18893;SDS011;9579;49.488;8.226;2023-09-08T01:12:56;7.28;;;6.68;;
18893;SDS011;9579;49.488;8.226;2023-09-08T01:15:43;7.43;;;6.75;;
18893;SDS011;9579;49.488;8.226;2023-09-08T01:18:30;7.43;;;6.80;;
18893;SDS011;9579;49.488;8.226;2023-09-08T01:21:22;7.72;;;7.03;;
18893;SDS011;9579;49.488;8.226;2023-09-08T01:24:39;6.65;;;6.15;;
18893;SDS011;9579;49.488;8.226;2023-09-08T01:27:52;6.50;;;5.93;;
18893;SDS011;9579;49.488;8.226;2023-09-08T01:30:40;6.85;;;6.25;;
18893;SDS011;9579;49.488;8.226;2023-09-08T01:33:27;7.45;;;6.60;;
18893;SDS011;9579;49.488;8.226;2023-09-08T01:36:14;8.32;;;6.45;;
18893;SDS011;9579;49.488;8.226;2023-09-08T01:39:02;7.22;;;6.53;;
18893;SDS011;9579;49.488;8.226;2023-09-08T01:41:49;6.53;;;6.03;;
18893;SDS011;9579;49.488;8.226;2023-09-08T01:44:38;6.97;;;6.40;;
18893;SDS011;9579;49.488;8.226;2023-09-08T01:47:25;7.07;;;6.38;;
18893;SDS011;9579;49.488;8.226;2023-09-08T01:50:12;6.45;;;5.95;;
18893;SDS011;9579;49.488;8.226;2023-09-08T01:53:00;7.13;;;6.43;;
18893;SDS011;9579;49.488;8.226;2023-09-08T01:55:47;6.05;;;5.55;;
18893;SDS011;9579;49.488;8.226;2023-09-08T01:58:34;6.47;;;5.97;;
18893;SDS011;9579;49.488;8.226;2023-09-08T02:01:22;6.78;;;6.18;;
18893;SDS011;9579;49.488;8.226;2023-09-08T02:04:09;7.03;;;6.47;;
18893;SDS011;9579;49.488;8.226;2023-09-08T02:06:56;6.47;;;5.97;;
18893;SDS011;9579;49.488;8.226;2023-09-08T02:09:43;6.78;;;6.20;;
18893;SDS011;9579;49.488;8.226;2023-09-08T02:12:30;6.65;;;6.15;;
18893;SDS011;9579;49.488;8.226;2023-09-08T02:15:17;6.10;;;5.70;;
18893;SDS011;9579;49.488;8.226;2023-09-08T02:18:06;6.47;;;6.03;;
18893;SDS011;9579;49.488;8.226;2023-09-08T02:20:53;6.28;;;5.78;;
18893;SDS011;9579;49.488;8.226;2023-09-08T02:23:40;6.97;;;6.28;;
18893;SDS011;9579;49.488;8.226;2023-09-08T02:26:27;6.82;;;6.32;;
18893;SDS011;9579;49.488;8.226;2023-09-08T02:29:17;6.93;;;6.40;;
18893;SDS011;9579;49.488;8.226;2023-09-08T02:32:04;6.68;;;6.18;;
18893;SDS011;9579;49.488;8.226;2023-09-08T02:34:53;6.88;;;6.28;;
18893;SDS011;9579;49.488;8.226;2023-09-08T02:37:40;7.13;;;6.60;;
18893;SDS011;9579;49.488;8.226;2023-09-08T02:40:27;6.15;;;5.75;;
18893;SDS011;9579;49.488;8.226;2023-09-08T02:43:14;6.80;;;6.30;;
18893;SDS011;9579;49.488;8.226;2023-09-08T02:46:01;6.43;;;5.93;;
18893;SDS011;9579;49.488;8.226;2023-09-08T02:48:49;6.78;;;6.28;;
18893;SDS011;9579;49.488;8.226;2023-09-08T02:51:39;6.93;;;6.32;;
18893;SDS011;9579;49.488;8.226;2023-09-08T02:54:26;6.38;;;5.88;;
18893;SDS011;9579;49.488;8.226;2023-09-08T02:57:13;6.72;;;6.22;;
18893;SDS011;9579;49.488;8.226;2023-09-08T03:00:00;6.28;;;5.70;;
18893;SDS011;9579;49.488;8.226;2023-09-08T03:02:47;6.15;;;5.65;;
18893;SDS011;9579;49.488;8.226;2023-09-08T03:05:34;7.72;;;6.38;;
18893;SDS011;9579;49.488;8.226;2023-09-08T03:08:23;6.35;;;5.75;;
18893;SDS011;9579;49.488;8.226;2023-09-08T03:11:10;6.75;;;6.20;;
18893;SDS011;9579;49.488;8.226;2023-09-08T03:13:58;6.20;;;5.60;;
18893;SDS011;9579;49.488;8.226;2023-09-08T03:16:45;6.05;;;5.55;;
18893;SDS011;9579;49.488;8.226;2023-09-08T03:19:32;6.13;;;5.63;;
18893;SDS011;9579;49.488;8.226;2023-09-08T03:22:19;5.65;;;5.15;;
18893;SDS011;9579;49.488;8.226;2023-09-08T03:25:08;6.20;;;5.70;;
18893;SDS011;9579;49.488;8.226;2023-09-08T03:27:55;6.18;;;5.68;;
18893;SDS011;9579;49.488;8.226;2023-09-08T03:30:42;6.47;;;5.85;;
18893;SDS011;9579;49.488;8.226;2023-09-08T03:33:29;6.13;;;5.63;;
18893;SDS011;9579;49.488;8.226;2023-09-08T03:36:16;6.60;;;6.10;;
18893;SDS011;9579;49.488;8.226;2023-09-08T03:39:03;6.60;;;6.10;;
18893;SDS011;9579;49.488;8.226;2023-09-08T03:41:51;6.68;;;6.07;;
18893;SDS011;9579;49.488;8.226;2023-09-08T03:44:38;7.07;;;6.57;;
18893;SDS011;9579;49.488;8.226;2023-09-08T03:47:25;7.20;;;6.43;;
18893;SDS011;9579;49.488;8.226;2023-09-08T03:50:12;6.82;;;6.13;;
18893;SDS011;9579;49.488;8.226;2023-09-08T03:53:00;6.07;;;5.57;;
18893;SDS011;9579;49.488;8.226;2023-09-08T03:55:47;6.10;;;5.60;;
18893;SDS011;9579;49.488;8.226;2023-09-08T03:58:35;6.70;;;6.20;;
18893;SDS011;9579;49.488;8.226;2023-09-08T04:01:22;6.75;;;6.18;;
18893;SDS011;9579;49.488;8.226;2023-09-08T04:04:09;6.85;;;6.32;;
18893;SDS011;9579;49.488;8.226;2023-09-08T04:06:56;7.13;;;6.63;;
18893;SDS011;9579;49.488;8.226;2023-09-08T04:09:43;6.47;;;5.88;;
18893;SDS011;9579;49.488;8.226;2023-09-08T04:12:30;7.03;;;6.28;;
18893;SDS011;9579;49.488;8.226;2023-09-08T04:15:18;6.53;;;6.00;;
18893;SDS011;9579;49.488;8.226;2023-09-08T04:18:05;6.35;;;5.85;;
18893;SDS011;9579;49.488;8.226;2023-09-08T04:20:52;6.53;;;5.93;;
18893;SDS011;9579;49.488;8.226;2023-09-08T04:23:39;6.30;;;5.80;;
18893;SDS011;9579;49.488;8.226;2023-09-08T04:26:26;6.30;;;5.80;;
18893;SDS011;9579;49.488;8.226;2023-09-08T04:29:13;6.07;;;5.47;;
18893;SDS011;9579;49.488;8.226;2023-09-08T04:32:02;7.60;;;5.40;;
18893;SDS011;9579;49.488;8.226;2023-09-08T04:34:54;5.93;;;5.43;;
18893;SDS011;9579;49.488;8.226;2023-09-08T04:37:41;6.45;;;5.72;;
18893;SDS011;9579;49.488;8.226;2023-09-08T04:40:28;6.10;;;5.63;;
18893;SDS011;9579;49.488;8.226;2023-09-08T04:43:15;6.40;;;5.90;;
18893;SDS011;9579;49.488;8.226;2023-09-08T04:46:02;7.00;;;6.25;;
18893;SDS011;9579;49.488;8.226;2023-09-08T04:48:50;6.72;;;6.13;;
18893;SDS011;9579;49.488;8.226;2023-09-08T04:51:37;6.50;;;6.00;;
18893;SDS011;9579;49.488;8.226;2023-09-08T04:54:24;7.07;;;6.38;;
18893;SDS011;9579;49.488;8.226;2023-09-08T04:57:12;7.35;;;6.03;;
18893;SDS011;9579;49.488;8.226;2023-09-08T04:59:59;7.50;;;6.80;;
18893;SDS011;9579;49.488;8.226;2023-09-08T05:02:46;6.75;;;6.13;;
18893;SDS011;9579;49.488;8.226;2023-09-08T05:05:34;6.97;;;6.45;;
18893;SDS011;9579;49.488;8.226;2023-09-08T05:08:21;6.88;;;6.28;;
18893;SDS011;9579;49.488;8.226;2023-09-08T05:11:08;6.57;;;5.97;;
18893;SDS011;9579;49.488;8.226;2023-09-08T05:13:56;6.30;;;5.70;;
18893;SDS011;9579;49.488;8.226;2023-09-08T05:16:43;9.48;;;6.40;;
18893;SDS011;9579;49.488;8.226;2023-09-08T05:19:32;6.18;;;5.57;;
18893;SDS011;9579;49.488;8.226;2023-09-08T05:22:20;8.63;;;5.85;;
18893;SDS011;9579;49.488;8.226;2023-09-08T05:25:07;6.43;;;5.80;;
18893;SDS011;9579;49.488;8.226;2023-09-08T05:27:54;6.78;;;6.07;;
18893;SDS011;9579;49.488;8.226;2023-09-08T05:30:41;7.43;;;6.25;;
18893;SDS011;9579;49.488;8.226;2023-09-08T05:33:28;6.88;;;5.70;;
18893;SDS011;9579;49.488;8.226;2023-09-08T05:36:15;6.90;;;6.18;;
18893;SDS011;9579;49.488;8.226;2023-09-08T05:39:04;6.63;;;6.03;;
18893;SDS011;9579;49.488;8.226;2023-09-08T05:41:51;6.55;;;5.95;;
18893;SDS011;9579;49.488;8.226;2023-09-08T05:44:38;6.82;;;6.20;;
18893;SDS011;9579;49.488;8.226;2023-09-08T05:47:25;6.63;;;5.47;;
18893;SDS011;9579;49.488;8.226;2023-09-08T05:50:12;7.00;;;6.07;;
18893;SDS011;9579;49.488;8.226;2023-09-08T05:52:59;7.13;;;6.38;;
18893;SDS011;9579;49.488;8.226;2023-09-08T05:55:48;6.47;;;5.97;;
18893;SDS011;9579;49.488;8.226;2023-09-08T05:58:35;6.80;;;6.18;;
18893;SDS011;9579;49.488;8.226;2023-09-08T06:01:22;7.10;;;5.97;;
18893;SDS011;9579;49.488;8.226;2023-09-08T06:04:09;8.10;;;6.30;;
18893;SDS011;9579;49.488;8.226;2023-09-08T06:06:56;16.27;;;6.53;;
18893;SDS011;9579;49.488;8.226;2023-09-08T06:09:43;11.63;;;6.35;;
18893;SDS011;9579;49.488;8.226;2023-09-08T06:12:32;9.48;;;6.65;;
18893;SDS011;9579;49.488;8.226;2023-09-08T06:15:19;17.77;;;6.70;;
18893;SDS011;9579;49.488;8.226;2023-09-08T06:18:06;8.35;;;5.93;;
18893;SDS011;9579;49.488;8.226;2023-09-08T06:20:53;7.25;;;6.43;;
18893;SDS011;9579;49.488;8.226;2023-09-08T06:23:40;8.70;;;6.90;;
18893;SDS011;9579;49.488;8.226;2023-09-08T06:26:27;8.52;;;6.90;;
18893;SDS011;9579;49.488;8.226;2023-09-08T06:29:15;7.43;;;6.78;;
18893;SDS011;9579;49.488;8.226;2023-09-08T06:32:02;6.75;;;6.00;;
18893;SDS011;9579;49.488;8.226;2023-09-08T06:34:50;6.80;;;6.22;;
18893;SDS011;9579;49.488;8.226;2023-09-08T06:37:37;7.68;;;6.88;;
18893;SDS011;9579;49.488;8.226;2023-09-08T06:40:25;7.30;;;6.57;;
18893;SDS011;9579;49.488;8.226;2023-09-08T06:43:12;7.20;;;6.70;;
18893;SDS011;9579;49.488;8.226;2023-09-08T06:46:00;7.90;;;6.88;;
18893;SDS011;9579;49.488;8.226;2023-09-08T06:48:47;7.40;;;6.80;;
18893;SDS011;9579;49.488;8.226;2023-09-08T06:51:34;7.63;;;6.78;;
18893;SDS011;9579;49.488;8.226;2023-09-08T06:54:22;7.68;;;6.93;;
18893;SDS011;9579;49.488;8.226;2023-09-08T06:57:09;6.80;;;6.30;;
18893;SDS011;9579;49.488;8.226;2023-09-08T06:59:56;6.85;;;6.25;;
18893;SDS011;9579;49.488;8.226;2023-09-08T07:02:44;8.05;;;7.45;;
18893;SDS011;9579;49.488;8.226;2023-09-08T07:05:31;7.90;;;7.20;;
18893;SDS011;9579;49.488;8.226;2023-09-08T07:08:18;8.30;;;7.50;;
18893;SDS011;9579;49.488;8.226;2023-09-08T07:11:05;8.10;;;7.30;;
18893;SDS011;9579;49.488;8.226;2023-09-08T07:13:52;7.25;;;6.65;;
18893;SDS011;9579;49.488;8.226;2023-09-08T07:16:39;6.88;;;6.30;;
18893;SDS011;9579;49.488;8.226;2023-09-08T07:19:28;6.50;;;5.97;;
18893;SDS011;9579;49.488;8.226;2023-09-08T07:22:15;7.82;;;7.10;;
18893;SDS011;9579;49.488;8.226;2023-09-08T07:25:02;7.55;;;6.72;;
18893;SDS011;9579;49.488;8.226;2023-09-08T07:27:50;7.68;;;7.07;;
18893;SDS011;9579;49.488;8.226;2023-09-08T07:30:38;7.25;;;5.90;;
18893;SDS011;9579;49.488;8.226;2023-09-08T07:33:25;7.93;;;7.30;;
18893;SDS011;9579;49.488;8.226;2023-09-08T07:36:15;7.45;;;6.85;;
18893;SDS011;9579;49.488;8.226;2023-09-08T07:39:02;7.20;;;6.70;;
18893;SDS011;9579;49.488;8.226;2023-09-08T07:41:49;7.05;;;6.55;;
18893;SDS011;9579;49.488;8.226;2023-09-08T07:44:37;8.95;;;7.45;;
18893;SDS011;9579;49.488;8.226;2023-09-08T07:47:24;10.02;;;6.80;;
18893;SDS011;9579;49.488;8.226;2023-09-08T07:50:18;6.35;;;5.85;;
18893;SDS011;9579;49.488;8.226;2023-09-08T07:53:08;6.90;;;6.40;;
18893;SDS011;9579;49.488;8.226;2023-09-08T07:55:55;6.72;;;6.13;;
18893;SDS011;9579;49.488;8.226;2023-09-08T07:58:42;6.95;;;6.32;;
18893;SDS011;9579;49.488;8.226;2023-09-08T08:01:29;8.00;;;6.85;;
18893;SDS011;9579;49.488;8.226;2023-09-08T08:04:17;5.90;;;5.40;;
18893;SDS011;9579;49.488;8.226;2023-09-08T08:07:04;6.90;;;6.35;;
18893;SDS011;9579;49.488;8.226;2023-09-08T08:09:55;6.55;;;5.95;;
18893;SDS011;9579;49.488;8.226;2023-09-08T08:12:42;7.72;;;6.93;;
18893;SDS011;9579;49.488;8.226;2023-09-08T08:15:35;6.85;;;6.20;;
18893;SDS011;9579;49.488;8.226;2023-09-08T08:18:23;6.57;;;6.07;;
18893;SDS011;9579;49.488;8.226;2023-09-08T08:21:10;6.07;;;5.57;;
18893;SDS011;9579;49.488;8.226;2023-09-08T08:23:57;6.68;;;5.60;;
18893;SDS011;9579;49.488;8.226;2023-09-08T08:26:45;7.35;;;6.65;;
18893;SDS011;9579;49.488;8.226;2023-09-08T08:29:32;6.03;;;5.53;;
18893;SDS011;9579;49.488;8.226;2023-09-08T08:32:19;6.97;;;6.38;;
18893;SDS011;9579;49.488;8.226;2023-09-08T08:35:06;7.20;;;6.50;;
18893;SDS011;9579;49.488;8.226;2023-09-08T08:37:54;7.57;;;6.93;;
18893;SDS011;9579;49.488;8.226;2023-09-08T08:40:41;7.40;;;6.70;;
18893;SDS011;9579;49.488;8.226;2023-09-08T08:43:29;6.05;;;5.55;;
18893;SDS011;9579;49.488;8.226;2023-09-08T08:46:18;6.32;;;5.82;;
18893;SDS011;9579;49.488;8.226;2023-09-08T08:49:06;6.20;;;5.70;;
18893;SDS011;9579;49.488;8.226;2023-09-08T08:51:56;6.43;;;5.85;;
18893;SDS011;9579;49.488;8.226;2023-09-08T08:54:45;6.43;;;5.93;;
18893;SDS011;9579;49.488;8.226;2023-09-08T08:57:32;6.35;;;5.72;;
18893;SDS011;9579;49.488;8.226;2023-09-08T09:00:21;5.70;;;5.20;;
18893;SDS011;9579;49.488;8.226;2023-09-08T09:03:08;6.55;;;5.70;;
18893;SDS011;9579;49.488;8.226;2023-09-08T09:05:56;6.00;;;5.50;;
18893;SDS011;9579;49.488;8.226;2023-09-08T09:08:44;5.93;;;5.43;;
18893;SDS011;9579;49.488;8.226;2023-09-08T09:11:32;6.28;;;5.68;;
18893;SDS011;9579;49.488;8.226;2023-09-08T09:14:19;6.22;;;5.72;;
18893;SDS011;9579;49.488;8.226;2023-09-08T09:17:12;5.85;;;5.35;;
18893;SDS011;9579;49.488;8.226;2023-09-08T09:20:13;6.05;;;5.65;;
18893;SDS011;9579;49.488;8.226;2023-09-08T09:23:03;6.90;;;6.10;;
18893;SDS011;9579;49.488;8.226;2023-09-08T09:25:50;6.10;;;5.60;;
18893;SDS011;9579;49.488;8.226;2023-09-08T09:28:40;6.35;;;5.75;;
18893;SDS011;9579;49.488;8.226;2023-09-08T09:31:33;5.85;;;5.35;;
18893;SDS011;9579;49.488;8.226;2023-09-08T09:34:22;6.68;;;6.07;;
18893;SDS011;9579;49.488;8.226;2023-09-08T09:37:10;6.88;;;6.35;;
18893;SDS011;9579;49.488;8.226;2023-09-08T09:39:59;6.13;;;5.70;;
18893;SDS011;9579;49.488;8.226;2023-09-08T09:42:47;6.47;;;5.97;;
18893;SDS011;9579;49.488;8.226;2023-09-08T09:45:36;6.10;;;5.60;;
18893;SDS011;9579;49.488;8.226;2023-09-08T09:48:24;5.93;;;5.43;;
18893;SDS011;9579;49.488;8.226;2023-09-08T09:51:16;7.20;;;6.60;;
18893;SDS011;9579;49.488;8.226;2023-09-08T09:54:05;6.95;;;6.25;;
18893;SDS011;9579;49.488;8.226;2023-09-08T09:56:52;7.03;;;6.07;;
18893;SDS011;9579;49.488;8.226;2023-09-08T09:59:40;6.75;;;6.22;;
18893;SDS011;9579;49.488;8.226;2023-09-08T10:02:28;6.75;;;6.25;;
18893;SDS011;9579;49.488;8.226;2023-09-08T10:05:15;6.55;;;6.05;;
18893;SDS011;9579;49.488;8.226;2023-09-08T10:08:05;7.60;;;6.90;;
18893;SDS011;9579;49.488;8.226;2023-09-08T10:10:52;6.90;;;6.30;;
18893;SDS011;9579;49.488;8.226;2023-09-08T10:13:42;7.30;;;6.70;;
18893;SDS011;9579;49.488;8.226;2023-09-08T10:16:34;7.07;;;6.38;;
18893;SDS011;9579;49.488;8.226;2023-09-08T10:19:22;6.60;;;6.05;;
18893;SDS011;9579;49.488;8.226;2023-09-08T10:22:11;6.57;;;6.05;;
18893;SDS011;9579;49.488;8.226;2023-09-08T10:25:03;7.18;;;6.53;;
18893;SDS011;9579;49.488;8.226;2023-09-08T10:27:53;8.55;;;7.75;;
18893;SDS011;9579;49.488;8.226;2023-09-08T10:30:41;7.45;;;6.90;;
18893;SDS011;9579;49.488;8.226;2023-09-08T10:33:29;7.43;;;6.70;;
18893;SDS011;9579;49.488;8.226;2023-09-08T10:36:17;7.60;;;7.00;;
18893;SDS011;9579;49.488;8.226;2023-09-08T10:42:22;7.90;;;7.15;;
18893;SDS011;9579;49.488;8.226;2023-09-08T10:45:15;7.13;;;6.43;;
18893;SDS011;9579;49.488;8.226;2023-09-08T10:48:03;7.40;;;6.82;;
18893;SDS011;9579;49.488;8.226;2023-09-08T10:50:52;7.60;;;7.00;;
18893;SDS011;9579;49.488;8.226;2023-09-08T10:53:39;6.90;;;6.38;;
18893;SDS011;9579;49.488;8.226;2023-09-08T10:56:27;8.10;;;7.40;;
18893;SDS011;9579;49.488;8.226;2023-09-08T10:59:35;7.60;;;7.00;;
18893;SDS011;9579;49.488;8.226;2023-09-08T11:02:34;7.18;;;6.50;;
18893;SDS011;9579;49.488;8.226;2023-09-08T11:05:23;7.20;;;6.60;;
18893;SDS011;9579;49.488;8.226;2023-09-08T11:08:10;7.00;;;6.40;;
18893;SDS011;9579;49.488;8.226;2023-09-08T11:10:57;6.43;;;5.90;;
18893;SDS011;9579;49.488;8.226;2023-09-08T11:13:44;6.82;;;6.15;;
18893;SDS011;9579;49.488;8.226;2023-09-08T11:16:33;6.85;;;6.35;;
18893;SDS011;9579;49.488;8.226;2023-09-08T11:19:20;7.30;;;6.70;;
18893;SDS011;9579;49.488;8.226;2023-09-08T11:22:07;7.43;;;6.80;;
18893;SDS011;9579;49.488;8.226;2023-09-08T11:24:55;8.23;;;7.47;;
18893;SDS011;9579;49.488;8.226;2023-09-08T11:27:45;7.65;;;6.93;;
18893;SDS011;9579;49.488;8.226;2023-09-08T11:30:35;7.25;;;6.70;;
18893;SDS011;9579;49.488;8.226;2023-09-08T11:33:24;6.57;;;5.97;;
18893;SDS011;9579;49.488;8.226;2023-09-08T11:36:11;7.28;;;6.68;;
18893;SDS011;9579;49.488;8.226;2023-09-08T11:39:03;6.90;;;6.40;;
18893;SDS011;9579;49.488;8.226;2023-09-08T11:41:51;6.75;;;6.10;;
18893;SDS011;9579;49.488;8.226;2023-09-08T11:44:39;7.88;;;7.05;;
18893;SDS011;9579;49.488;8.226;2023-09-08T11:47:27;6.97;;;6.47;;
18893;SDS011;9579;49.488;8.226;2023-09-08T11:50:15;6.60;;;6.10;;
18893;SDS011;9579;49.488;8.226;2023-09-08T11:53:05;6.07;;;5.57;;
18893;SDS011;9579;49.488;8.226;2023-09-08T11:55:53;6.30;;;5.80;;
18893;SDS011;9579;49.488;8.226;2023-09-08T11:58:40;6.45;;;6.00;;
18893;SDS011;9579;49.488;8.226;2023-09-08T12:01:28;6.63;;;6.07;;
18893;SDS011;9579;49.488;8.226;2023-09-08T12:04:19;6.32;;;5.72;;
18893;SDS011;9579;49.488;8.226;2023-09-08T12:07:13;6.80;;;6.30;;
18893;SDS011;9579;49.488;8.226;2023-09-08T12:10:06;6.72;;;6.10;;
18893;SDS011;9579;49.488;8.226;2023-09-08T12:12:54;6.30;;;5.80;;
18893;SDS011;9579;49.488;8.226;2023-09-08T12:15:45;6.45;;;5.95;;
18893;SDS011;9579;49.488;8.226;2023-09-08T12:18:40;6.38;;;5.88;;
18893;SDS011;9579;49.488;8.226;2023-09-08T12:21:30;6.10;;;5.60;;
18893;SDS011;9579;49.488;8.226;2023-09-08T12:24:19;6.22;;;5.72;;
18893;SDS011;9579;49.488;8.226;2023-09-08T12:27:08;6.70;;;6.20;;
18893;SDS011;9579;49.488;8.226;2023-09-08T12:29:56;5.70;;;5.30;;
18893;SDS011;9579;49.488;8.226;2023-09-08T12:32:46;5.85;;;5.45;;
18893;SDS011;9579;49.488;8.226;2023-09-08T12:35:35;6.57;;;6.07;;
18893;SDS011;9579;49.488;8.226;2023-09-08T12:38:30;5.72;;;5.22;;
18893;SDS011;9579;49.488;8.226;2023-09-08T12:41:18;5.75;;;5.25;;
18893;SDS011;9579;49.488;8.226;2023-09-08T12:44:06;5.85;;;5.45;;
18893;SDS011;9579;49.488;8.226;2023-09-08T12:46:53;5.88;;;5.47;;
18893;SDS011;9579;49.488;8.226;2023-09-08T12:49:40;6.10;;;5.60;;
18893;SDS011;9579;49.488;8.226;2023-09-08T12:52:27;6.07;;;5.47;;
18893;SDS011;9579;49.488;8.226;2023-09-08T12:55:14;5.65;;;5.25;;
18893;SDS011;9579;49.488;8.226;2023-09-08T12:58:02;6.97;;;5.90;;
18893;SDS011;9579;49.488;8.226;2023-09-08T13:00:53;6.40;;;5.80;;
18893;SDS011;9579;49.488;8.226;2023-09-08T13:03:41;6.50;;;6.00;;
18893;SDS011;9579;49.488;8.226;2023-09-08T13:06:34;6.10;;;5.50;;
18893;SDS011;9579;49.488;8.226;2023-09-08T13:09:21;6.30;;;5.80;;
18893;SDS011;9579;49.488;8.226;2023-09-08T13:12:08;6.13;;;5.63;;
18893;SDS011;9579;49.488;8.226;2023-09-08T13:14:57;6.05;;;5.65;;
18893;SDS011;9579;49.488;8.226;2023-09-08T13:17:44;6.05;;;5.60;;
18893;SDS011;9579;49.488;8.226;2023-09-08T13:20:31;6.53;;;5.93;;
18893;SDS011;9579;49.488;8.226;2023-09-08T13:23:18;6.13;;;5.63;;
18893;SDS011;9579;49.488;8.226;2023-09-08T13:26:05;5.68;;;5.20;;
18893;SDS011;9579;49.488;8.226;2023-09-08T13:28:52;6.13;;;5.65;;
18893;SDS011;9579;49.488;8.226;2023-09-08T13:31:40;5.53;;;5.10;;
18893;SDS011;9579;49.488;8.226;2023-09-08T13:34:27;5.97;;;5.47;;
18893;SDS011;9579;49.488;8.226;2023-09-08T13:37:14;6.95;;;6.03;;
18893;SDS011;9579;49.488;8.226;2023-09-08T13:40:01;5.55;;;5.05;;
18893;SDS011;9579;49.488;8.226;2023-09-08T13:42:49;5.90;;;5.40;;
18893;SDS011;9579;49.488;8.226;2023-09-08T13:45:36;6.10;;;5.50;;
18893;SDS011;9579;49.488;8.226;2023-09-08T13:48:24;5.55;;;5.10;;
18893;SDS011;9579;49.488;8.226;2023-09-08T13:51:11;5.65;;;5.28;;
18893;SDS011;9579;49.488;8.226;2023-09-08T13:53:58;5.93;;;5.22;;
18893;SDS011;9579;49.488;8.226;2023-09-08T13:56:46;6.03;;;5.53;;
18893;SDS011;9579;49.488;8.226;2023-09-08T13:59:44;5.80;;;5.30;;
18893;SDS011;9579;49.488;8.226;2023-09-08T14:02:31;6.00;;;5.60;;
18893;SDS011;9579;49.488;8.226;2023-09-08T14:05:20;6.15;;;5.50;;
18893;SDS011;9579;49.488;8.226;2023-09-08T14:08:07;5.63;;;5.10;;
18893;SDS011;9579;49.488;8.226;2023-09-08T14:10:54;5.63;;;5.22;;
18893;SDS011;9579;49.488;8.226;2023-09-08T14:13:41;6.20;;;5.65;;
18893;SDS011;9579;49.488;8.226;2023-09-08T14:16:28;5.75;;;5.35;;
18893;SDS011;9579;49.488;8.226;2023-09-08T14:19:16;6.95;;;5.10;;
18893;SDS011;9579;49.488;8.226;2023-09-08T14:22:05;6.03;;;5.43;;
18893;SDS011;9579;49.488;8.226;2023-09-08T14:24:53;5.25;;;4.80;;
18893;SDS011;9579;49.488;8.226;2023-09-08T14:27:40;6.30;;;5.68;;
18893;SDS011;9579;49.488;8.226;2023-09-08T14:30:27;5.72;;;5.20;;
18893;SDS011;9579;49.488;8.226;2023-09-08T14:33:14;6.40;;;5.50;;
18893;SDS011;9579;49.488;8.226;2023-09-08T14:36:02;5.78;;;5.28;;
18893;SDS011;9579;49.488;8.226;2023-09-08T14:38:54;5.57;;;5.07;;
18893;SDS011;9579;49.488;8.226;2023-09-08T14:41:42;5.50;;;5.10;;
18893;SDS011;9579;49.488;8.226;2023-09-08T14:44:29;5.95;;;5.38;;
18893;SDS011;9579;49.488;8.226;2023-09-08T14:47:16;5.85;;;5.32;;
18893;SDS011;9579;49.488;8.226;2023-09-08T14:50:03;5.90;;;5.35;;
18893;SDS011;9579;49.488;8.226;2023-09-08T14:52:51;5.93;;;5.45;;
18893;SDS011;9579;49.488;8.226;2023-09-08T14:55:39;6.38;;;5.95;;
18893;SDS011;9579;49.488;8.226;2023-09-08T14:58:29;5.40;;;5.00;;
18893;SDS011;9579;49.488;8.226;2023-09-08T15:01:19;5.07;;;4.70;;
18893;SDS011;9579;49.488;8.226;2023-09-08T15:04:06;5.50;;;5.10;;
18893;SDS011;9579;49.488;8.226;2023-09-08T15:06:53;5.63;;;5.20;;
18893;SDS011;9579;49.488;8.226;2023-09-08T15:09:40;6.10;;;5.60;;
18893;SDS011;9579;49.488;8.226;2023-09-08T15:12:28;5.43;;;4.97;;
18893;SDS011;9579;49.488;8.226;2023-09-08T15:15:15;6.38;;;5.82;;
18893;SDS011;9579;49.488;8.226;2023-09-08T15:18:08;5.78;;;5.38;;
18893;SDS011;9579;49.488;8.226;2023-09-08T15:20:56;5.28;;;4.88;;
18893;SDS011;9579;49.488;8.226;2023-09-08T15:23:43;4.90;;;4.60;;
18893;SDS011;9579;49.488;8.226;2023-09-08T15:26:30;6.00;;;4.90;;
18893;SDS011;9579;49.488;8.226;2023-09-08T15:29:18;5.85;;;5.35;;
18893;SDS011;9579;49.488;8.226;2023-09-08T15:32:06;5.25;;;4.85;;
18893;SDS011;9579;49.488;8.226;2023-09-08T15:34:53;5.40;;;4.90;;
18893;SDS011;9579;49.488;8.226;2023-09-08T15:37:40;6.00;;;5.40;;
18893;SDS011;9579;49.488;8.226;2023-09-08T15:40:28;5.22;;;4.78;;
18893;SDS011;9579;49.488;8.226;2023-09-08T15:43:15;5.38;;;4.97;;
18893;SDS011;9579;49.488;8.226;2023-09-08T15:46:03;5.78;;;5.28;;
18893;SDS011;9579;49.488;8.226;2023-09-08T15:48:50;5.40;;;5.00;;
18893;SDS011;9579;49.488;8.226;2023-09-08T15:51:37;6.07;;;5.25;;
18893;SDS011;9579;49.488;8.226;2023-09-08T15:54:24;6.07;;;5.18;;
18893;SDS011;9579;49.488;8.226;2023-09-08T15:57:11;5.35;;;4.95;;
18893;SDS011;9579;49.488;8.226;2023-09-08T15:59:58;5.00;;;4.63;;
18893;SDS011;9579;49.488;8.226;2023-09-08T16:02:46;5.35;;;4.90;;
18893;SDS011;9579;49.488;8.226;2023-09-08T16:05:33;5.55;;;5.13;;
18893;SDS011;9579;49.488;8.226;2023-09-08T16:08:20;5.35;;;4.95;;
18893;SDS011;9579;49.488;8.226;2023-09-08T16:11:08;5.05;;;4.65;;
18893;SDS011;9579;49.488;8.226;2023-09-08T16:13:55;5.00;;;4.70;;
18893;SDS011;9579;49.488;8.226;2023-09-08T16:16:42;5.18;;;4.82;;
18893;SDS011;9579;49.488;8.226;2023-09-08T16:19:30;5.28;;;4.88;;
18893;SDS011;9579;49.488;8.226;2023-09-08T16:22:17;4.88;;;4.57;;
18893;SDS011;9579;49.488;8.226;2023-09-08T16:25:04;5.85;;;5.35;;
18893;SDS011;9579;49.488;8.226;2023-09-08T16:27:52;6.43;;;5.45;;
18893;SDS011;9579;49.488;8.226;2023-09-08T16:30:39;5.63;;;5.22;;
18893;SDS011;9579;49.488;8.226;2023-09-08T16:33:26;5.53;;;5.13;;
18893;SDS011;9579;49.488;8.226;2023-09-08T16:36:14;5.32;;;4.82;;
18893;SDS011;9579;49.488;8.226;2023-09-08T16:39:01;6.05;;;5.55;;
18893;SDS011;9579;49.488;8.226;2023-09-08T16:41:48;5.55;;;5.05;;
18893;SDS011;9579;49.488;8.226;2023-09-08T16:44:35;5.60;;;5.10;;
18893;SDS011;9579;49.488;8.226;2023-09-08T16:47:23;5.80;;;5.30;;
18893;SDS011;9579;49.488;8.226;2023-09-08T16:50:10;5.60;;;5.20;;
18893;SDS011;9579;49.488;8.226;2023-09-08T16:52:59;5.75;;;5.30;;
18893;SDS011;9579;49.488;8.226;2023-09-08T16:55:46;5.80;;;5.30;;
18893;SDS011;9579;49.488;8.226;2023-09-08T16:58:33;5.50;;;5.10;;
18893;SDS011;9579;49.488;8.226;2023-09-08T17:01:20;5.30;;;4.90;;
18893;SDS011;9579;49.488;8.226;2023-09-08T17:04:07;5.50;;;5.10;;
18893;SDS011;9579;49.488;8.226;2023-09-08T17:06:54;5.93;;;5.43;;
18893;SDS011;9579;49.488;8.226;2023-09-08T17:09:43;5.85;;;5.35;;